sensor_id;sensor_type;location;lat;lon;timestamp;P1;durP1;ratioP1;P2;durP2;ratioP2
75718;SDS011;64340;48.534;-3.036;2023-06-14T00:00:58;10.40;;;6.78;;
75718;SDS011;64340;48.534;-3.036;2023-06-14T00:03:23;10.88;;;7.28;;
75718;SDS011;64340;48.534;-3.036;2023-06-14T00:05:49;11.35;;;7.90;;
75718;SDS011;64340;48.534;-3.036;2023-06-14T00:08:15;10.88;;;7.45;;
75718;SDS011;64340;48.534;-3.036;2023-06-14T00:10:41;10.38;;;6.97;;
75718;SDS011;64340;48.534;-3.036;2023-06-14T00:13:07;9.82;;;6.38;;
75718;SDS011;64340;48.534;-3.036;2023-06-14T00:15:34;11.20;;;7.32;;
75718;SDS011;64340;48.534;-3.036;2023-06-14T00:18:00;11.80;;;7.30;;
75718;SDS011;64340;48.534;-3.036;2023-06-14T00:20:27;11.25;;;7.50;;
75718;SDS011;64340;48.534;-3.036;2023-06-14T00:22:55;11.48;;;7.53;;
75718;SDS011;64340;48.534;-3.036;2023-06-14T00:25:24;12.15;;;7.05;;
75718;SDS011;64340;48.534;-3.036;2023-06-14T00:27:50;12.75;;;7.28;;
75718;SDS011;64340;48.534;-3.036;2023-06-14T00:30:17;12.98;;;8.20;;
75718;SDS011;64340;48.534;-3.036;2023-06-14T00:32:43;12.30;;;6.97;;
75718;SDS011;64340;48.534;-3.036;2023-06-14T00:35:10;11.93;;;7.43;;
75718;SDS011;64340;48.534;-3.036;2023-06-14T00:37:36;13.23;;;7.88;;
75718;SDS011;64340;48.534;-3.036;2023-06-14T00:40:02;11.77;;;7.57;;
75718;SDS011;64340;48.534;-3.036;2023-06-14T00:42:29;11.73;;;7.03;;
75718;SDS011;64340;48.534;-3.036;2023-06-14T00:44:56;12.55;;;8.25;;
75718;SDS011;64340;48.534;-3.036;2023-06-14T00:47:22;12.82;;;7.72;;
75718;SDS011;64340;48.534;-3.036;2023-06-14T00:49:49;12.15;;;7.75;;
75718;SDS011;64340;48.534;-3.036;2023-06-14T00:52:18;11.52;;;7.30;;
75718;SDS011;64340;48.534;-3.036;2023-06-14T00:54:44;12.32;;;8.32;;
75718;SDS011;64340;48.534;-3.036;2023-06-14T00:57:10;12.77;;;8.35;;
75718;SDS011;64340;48.534;-3.036;2023-06-14T00:59:38;11.90;;;7.72;;
75718;SDS011;64340;48.534;-3.036;2023-06-14T01:02:08;11.20;;;7.50;;
75718;SDS011;64340;48.534;-3.036;2023-06-14T01:04:35;11.98;;;7.25;;
75718;SDS011;64340;48.534;-3.036;2023-06-14T01:07:11;12.85;;;8.00;;
75718;SDS011;64340;48.534;-3.036;2023-06-14T01:09:48;12.10;;;7.53;;
75718;SDS011;64340;48.534;-3.036;2023-06-14T01:12:46;12.40;;;7.80;;
75718;SDS011;64340;48.534;-3.036;2023-06-14T01:15:12;11.43;;;7.72;;
75718;SDS011;64340;48.534;-3.036;2023-06-14T01:17:38;11.63;;;8.07;;
75718;SDS011;64340;48.534;-3.036;2023-06-14T01:20:08;11.55;;;7.85;;
75718;SDS011;64340;48.534;-3.036;2023-06-14T01:22:47;11.57;;;7.35;;
75718;SDS011;64340;48.534;-3.036;2023-06-14T01:25:20;11.88;;;7.93;;
75718;SDS011;64340;48.534;-3.036;2023-06-14T01:27:51;12.68;;;7.88;;
75718;SDS011;64340;48.534;-3.036;2023-06-14T01:30:20;13.00;;;7.90;;
75718;SDS011;64340;48.534;-3.036;2023-06-14T01:32:48;13.73;;;7.82;;
75718;SDS011;64340;48.534;-3.036;2023-06-14T01:35:18;12.60;;;7.75;;
75718;SDS011;64340;48.534;-3.036;2023-06-14T01:37:44;12.23;;;7.70;;
75718;SDS011;64340;48.534;-3.036;2023-06-14T01:40:12;11.27;;;7.55;;
75718;SDS011;64340;48.534;-3.036;2023-06-14T01:42:39;13.18;;;8.45;;
75718;SDS011;64340;48.534;-3.036;2023-06-14T01:45:06;12.77;;;8.40;;
75718;SDS011;64340;48.534;-3.036;2023-06-14T01:47:32;12.15;;;7.45;;
75718;SDS011;64340;48.534;-3.036;2023-06-14T01:50:00;12.40;;;8.75;;
75718;SDS011;64340;48.534;-3.036;2023-06-14T01:52:27;11.60;;;7.55;;
75718;SDS011;64340;48.534;-3.036;2023-06-14T01:54:53;12.63;;;7.88;;
75718;SDS011;64340;48.534;-3.036;2023-06-14T01:57:19;12.60;;;7.93;;
75718;SDS011;64340;48.534;-3.036;2023-06-14T01:59:45;12.00;;;7.88;;
75718;SDS011;64340;48.534;-3.036;2023-06-14T02:02:13;11.25;;;7.82;;
75718;SDS011;64340;48.534;-3.036;2023-06-14T02:04:40;11.80;;;7.43;;
75718;SDS011;64340;48.534;-3.036;2023-06-14T02:07:06;9.95;;;6.80;;
75718;SDS011;64340;48.534;-3.036;2023-06-14T02:09:33;13.05;;;7.72;;
75718;SDS011;64340;48.534;-3.036;2023-06-14T02:12:00;14.63;;;7.78;;
75718;SDS011;64340;48.534;-3.036;2023-06-14T02:14:26;12.95;;;7.93;;
75718;SDS011;64340;48.534;-3.036;2023-06-14T02:16:52;13.13;;;7.97;;
75718;SDS011;64340;48.534;-3.036;2023-06-14T02:19:18;13.30;;;8.07;;
75718;SDS011;64340;48.534;-3.036;2023-06-14T02:21:45;12.50;;;7.95;;
75718;SDS011;64340;48.534;-3.036;2023-06-14T02:24:12;13.40;;;8.05;;
75718;SDS011;64340;48.534;-3.036;2023-06-14T02:26:38;11.90;;;8.25;;
75718;SDS011;64340;48.534;-3.036;2023-06-14T02:29:04;12.32;;;7.88;;
75718;SDS011;64340;48.534;-3.036;2023-06-14T02:31:31;13.90;;;8.88;;
75718;SDS011;64340;48.534;-3.036;2023-06-14T02:33:57;12.13;;;7.72;;
75718;SDS011;64340;48.534;-3.036;2023-06-14T02:36:23;12.95;;;8.00;;
75718;SDS011;64340;48.534;-3.036;2023-06-14T02:38:49;14.52;;;9.00;;
75718;SDS011;64340;48.534;-3.036;2023-06-14T02:41:15;17.88;;;8.57;;
75718;SDS011;64340;48.534;-3.036;2023-06-14T02:43:40;15.02;;;9.00;;
75718;SDS011;64340;48.534;-3.036;2023-06-14T02:46:06;14.90;;;8.95;;
75718;SDS011;64340;48.534;-3.036;2023-06-14T02:48:32;17.02;;;9.90;;
75718;SDS011;64340;48.534;-3.036;2023-06-14T02:50:58;15.55;;;9.05;;
75718;SDS011;64340;48.534;-3.036;2023-06-14T02:53:24;14.70;;;8.85;;
75718;SDS011;64340;48.534;-3.036;2023-06-14T02:55:50;12.35;;;8.00;;
75718;SDS011;64340;48.534;-3.036;2023-06-14T02:58:17;13.60;;;8.60;;
75718;SDS011;64340;48.534;-3.036;2023-06-14T03:00:44;12.32;;;8.27;;
75718;SDS011;64340;48.534;-3.036;2023-06-14T03:03:09;14.18;;;8.77;;
75718;SDS011;64340;48.534;-3.036;2023-06-14T03:05:43;13.00;;;8.27;;
75718;SDS011;64340;48.534;-3.036;2023-06-14T03:08:14;14.73;;;8.75;;
75718;SDS011;64340;48.534;-3.036;2023-06-14T03:10:47;14.98;;;9.07;;
75718;SDS011;64340;48.534;-3.036;2023-06-14T03:13:14;15.20;;;8.88;;
75718;SDS011;64340;48.534;-3.036;2023-06-14T03:15:41;14.50;;;8.85;;
75718;SDS011;64340;48.534;-3.036;2023-06-14T03:18:08;13.35;;;8.32;;
75718;SDS011;64340;48.534;-3.036;2023-06-14T03:20:35;14.48;;;8.18;;
75718;SDS011;64340;48.534;-3.036;2023-06-14T03:23:01;12.80;;;8.25;;
75718;SDS011;64340;48.534;-3.036;2023-06-14T03:25:28;12.93;;;8.27;;
75718;SDS011;64340;48.534;-3.036;2023-06-14T03:27:55;13.18;;;8.32;;
75718;SDS011;64340;48.534;-3.036;2023-06-14T03:30:21;14.35;;;8.43;;
75718;SDS011;64340;48.534;-3.036;2023-06-14T03:32:47;14.20;;;8.93;;
75718;SDS011;64340;48.534;-3.036;2023-06-14T03:35:13;12.30;;;8.60;;
75718;SDS011;64340;48.534;-3.036;2023-06-14T03:37:47;14.93;;;8.77;;
75718;SDS011;64340;48.534;-3.036;2023-06-14T03:40:15;13.05;;;8.13;;
75718;SDS011;64340;48.534;-3.036;2023-06-14T03:42:43;13.02;;;8.10;;
75718;SDS011;64340;48.534;-3.036;2023-06-14T03:45:08;11.68;;;8.02;;
75718;SDS011;64340;48.534;-3.036;2023-06-14T03:47:35;13.32;;;8.43;;
75718;SDS011;64340;48.534;-3.036;2023-06-14T03:50:01;13.70;;;8.70;;
75718;SDS011;64340;48.534;-3.036;2023-06-14T03:52:28;13.32;;;8.13;;
75718;SDS011;64340;48.534;-3.036;2023-06-14T03:54:54;12.70;;;8.25;;
75718;SDS011;64340;48.534;-3.036;2023-06-14T03:57:20;13.23;;;8.60;;
75718;SDS011;64340;48.534;-3.036;2023-06-14T03:59:46;13.40;;;8.70;;
75718;SDS011;64340;48.534;-3.036;2023-06-14T04:02:12;13.88;;;8.23;;
75718;SDS011;64340;48.534;-3.036;2023-06-14T04:04:41;13.02;;;8.70;;
75718;SDS011;64340;48.534;-3.036;2023-06-14T04:07:13;14.93;;;9.40;;
75718;SDS011;64340;48.534;-3.036;2023-06-14T04:09:39;13.57;;;8.35;;
75718;SDS011;64340;48.534;-3.036;2023-06-14T04:12:05;15.23;;;9.02;;
75718;SDS011;64340;48.534;-3.036;2023-06-14T04:14:33;12.93;;;8.57;;
75718;SDS011;64340;48.534;-3.036;2023-06-14T04:16:59;13.52;;;8.90;;
75718;SDS011;64340;48.534;-3.036;2023-06-14T04:19:25;12.05;;;7.55;;
75718;SDS011;64340;48.534;-3.036;2023-06-14T04:21:51;14.25;;;8.95;;
75718;SDS011;64340;48.534;-3.036;2023-06-14T04:24:17;13.63;;;8.63;;
75718;SDS011;64340;48.534;-3.036;2023-06-14T04:26:44;12.80;;;7.82;;
75718;SDS011;64340;48.534;-3.036;2023-06-14T04:29:10;12.88;;;8.65;;
75718;SDS011;64340;48.534;-3.036;2023-06-14T04:31:41;12.77;;;8.07;;
75718;SDS011;64340;48.534;-3.036;2023-06-14T04:34:08;12.95;;;8.02;;
75718;SDS011;64340;48.534;-3.036;2023-06-14T04:36:34;12.27;;;8.00;;
75718;SDS011;64340;48.534;-3.036;2023-06-14T04:41:31;14.50;;;8.20;;
75718;SDS011;64340;48.534;-3.036;2023-06-14T04:43:57;14.00;;;8.50;;
75718;SDS011;64340;48.534;-3.036;2023-06-14T04:48:53;11.48;;;8.05;;
75718;SDS011;64340;48.534;-3.036;2023-06-14T04:51:20;13.63;;;9.23;;
75718;SDS011;64340;48.534;-3.036;2023-06-14T04:53:47;13.90;;;8.38;;
75718;SDS011;64340;48.534;-3.036;2023-06-14T04:56:14;14.18;;;8.50;;
75718;SDS011;64340;48.534;-3.036;2023-06-14T04:58:41;13.10;;;8.50;;
75718;SDS011;64340;48.534;-3.036;2023-06-14T05:01:08;14.20;;;9.00;;
75718;SDS011;64340;48.534;-3.036;2023-06-14T05:03:34;13.70;;;8.30;;
75718;SDS011;64340;48.534;-3.036;2023-06-14T05:06:00;12.40;;;8.25;;
75718;SDS011;64340;48.534;-3.036;2023-06-14T05:08:26;12.32;;;8.07;;
75718;SDS011;64340;48.534;-3.036;2023-06-14T05:10:52;17.50;;;10.75;;
75718;SDS011;64340;48.534;-3.036;2023-06-14T05:13:18;14.90;;;9.45;;
75718;SDS011;64340;48.534;-3.036;2023-06-14T05:15:44;15.68;;;9.57;;
75718;SDS011;64340;48.534;-3.036;2023-06-14T05:18:10;15.50;;;9.70;;
75718;SDS011;64340;48.534;-3.036;2023-06-14T05:20:35;16.90;;;10.38;;
75718;SDS011;64340;48.534;-3.036;2023-06-14T05:23:02;19.45;;;10.80;;
75718;SDS011;64340;48.534;-3.036;2023-06-14T05:25:28;20.27;;;10.93;;
75718;SDS011;64340;48.534;-3.036;2023-06-14T05:27:54;14.80;;;9.45;;
75718;SDS011;64340;48.534;-3.036;2023-06-14T05:30:20;18.30;;;10.85;;
75718;SDS011;64340;48.534;-3.036;2023-06-14T05:32:45;18.23;;;10.25;;
75718;SDS011;64340;48.534;-3.036;2023-06-14T05:35:11;16.08;;;9.88;;
75718;SDS011;64340;48.534;-3.036;2023-06-14T05:37:37;16.73;;;10.50;;
75718;SDS011;64340;48.534;-3.036;2023-06-14T05:40:03;15.55;;;9.20;;
75718;SDS011;64340;48.534;-3.036;2023-06-14T05:42:31;18.42;;;10.23;;
75718;SDS011;64340;48.534;-3.036;2023-06-14T05:44:58;14.68;;;9.43;;
75718;SDS011;64340;48.534;-3.036;2023-06-14T05:47:23;14.93;;;9.43;;
75718;SDS011;64340;48.534;-3.036;2023-06-14T05:49:50;14.32;;;9.43;;
75718;SDS011;64340;48.534;-3.036;2023-06-14T05:52:16;17.00;;;9.50;;
75718;SDS011;64340;48.534;-3.036;2023-06-14T05:54:42;15.25;;;9.45;;
75718;SDS011;64340;48.534;-3.036;2023-06-14T05:57:08;14.25;;;9.13;;
75718;SDS011;64340;48.534;-3.036;2023-06-14T05:59:33;14.82;;;9.23;;
75718;SDS011;64340;48.534;-3.036;2023-06-14T06:01:59;14.88;;;9.70;;
75718;SDS011;64340;48.534;-3.036;2023-06-14T06:04:25;12.85;;;8.60;;
75718;SDS011;64340;48.534;-3.036;2023-06-14T06:06:51;14.52;;;9.75;;
75718;SDS011;64340;48.534;-3.036;2023-06-14T06:09:16;13.85;;;9.23;;
75718;SDS011;64340;48.534;-3.036;2023-06-14T06:11:42;13.52;;;9.50;;
75718;SDS011;64340;48.534;-3.036;2023-06-14T06:14:08;11.18;;;8.70;;
75718;SDS011;64340;48.534;-3.036;2023-06-14T06:16:34;14.80;;;9.30;;
75718;SDS011;64340;48.534;-3.036;2023-06-14T06:19:00;14.43;;;9.38;;
75718;SDS011;64340;48.534;-3.036;2023-06-14T06:21:26;14.50;;;9.93;;
75718;SDS011;64340;48.534;-3.036;2023-06-14T06:23:51;15.05;;;9.50;;
75718;SDS011;64340;48.534;-3.036;2023-06-14T06:26:17;14.52;;;9.70;;
75718;SDS011;64340;48.534;-3.036;2023-06-14T06:28:43;13.32;;;9.23;;
75718;SDS011;64340;48.534;-3.036;2023-06-14T06:31:09;15.27;;;10.20;;
75718;SDS011;64340;48.534;-3.036;2023-06-14T06:33:36;14.57;;;9.48;;
75718;SDS011;64340;48.534;-3.036;2023-06-14T06:36:02;14.10;;;9.95;;
75718;SDS011;64340;48.534;-3.036;2023-06-14T06:38:28;15.15;;;9.68;;
75718;SDS011;64340;48.534;-3.036;2023-06-14T06:40:53;15.27;;;9.43;;
75718;SDS011;64340;48.534;-3.036;2023-06-14T06:43:20;13.55;;;9.43;;
75718;SDS011;64340;48.534;-3.036;2023-06-14T06:45:45;14.13;;;9.05;;
75718;SDS011;64340;48.534;-3.036;2023-06-14T06:48:11;13.75;;;9.75;;
75718;SDS011;64340;48.534;-3.036;2023-06-14T06:50:37;14.23;;;9.55;;
75718;SDS011;64340;48.534;-3.036;2023-06-14T06:53:03;16.00;;;9.55;;
75718;SDS011;64340;48.534;-3.036;2023-06-14T06:55:30;12.30;;;8.50;;
75718;SDS011;64340;48.534;-3.036;2023-06-14T06:57:56;13.95;;;9.60;;
75718;SDS011;64340;48.534;-3.036;2023-06-14T07:00:22;15.35;;;9.23;;
75718;SDS011;64340;48.534;-3.036;2023-06-14T07:02:48;13.80;;;9.15;;
75718;SDS011;64340;48.534;-3.036;2023-06-14T07:05:13;14.85;;;9.77;;
75718;SDS011;64340;48.534;-3.036;2023-06-14T07:07:39;15.63;;;10.15;;
75718;SDS011;64340;48.534;-3.036;2023-06-14T07:10:05;16.27;;;10.27;;
75718;SDS011;64340;48.534;-3.036;2023-06-14T07:12:32;13.00;;;9.10;;
75718;SDS011;64340;48.534;-3.036;2023-06-14T07:15:01;14.65;;;9.73;;
75718;SDS011;64340;48.534;-3.036;2023-06-14T07:17:26;14.25;;;9.98;;
75718;SDS011;64340;48.534;-3.036;2023-06-14T07:19:52;13.73;;;9.73;;
75718;SDS011;64340;48.534;-3.036;2023-06-14T07:22:18;16.30;;;10.57;;
75718;SDS011;64340;48.534;-3.036;2023-06-14T07:24:45;15.85;;;10.02;;
75718;SDS011;64340;48.534;-3.036;2023-06-14T07:27:10;14.80;;;9.57;;
75718;SDS011;64340;48.534;-3.036;2023-06-14T07:29:38;16.52;;;10.45;;
75718;SDS011;64340;48.534;-3.036;2023-06-14T07:32:04;18.38;;;10.93;;
75718;SDS011;64340;48.534;-3.036;2023-06-14T07:34:30;16.40;;;10.90;;
75718;SDS011;64340;48.534;-3.036;2023-06-14T07:36:56;15.25;;;10.30;;
75718;SDS011;64340;48.534;-3.036;2023-06-14T07:39:22;16.95;;;10.40;;
75718;SDS011;64340;48.534;-3.036;2023-06-14T07:41:48;17.90;;;10.82;;
75718;SDS011;64340;48.534;-3.036;2023-06-14T07:44:14;14.35;;;10.25;;
75718;SDS011;64340;48.534;-3.036;2023-06-14T07:46:41;15.43;;;10.43;;
75718;SDS011;64340;48.534;-3.036;2023-06-14T07:49:07;16.50;;;9.93;;
75718;SDS011;64340;48.534;-3.036;2023-06-14T07:51:32;16.52;;;10.82;;
75718;SDS011;64340;48.534;-3.036;2023-06-14T07:53:59;15.10;;;10.05;;
75718;SDS011;64340;48.534;-3.036;2023-06-14T07:56:28;14.73;;;10.10;;
75718;SDS011;64340;48.534;-3.036;2023-06-14T07:58:54;14.77;;;9.85;;
75718;SDS011;64340;48.534;-3.036;2023-06-14T08:01:20;16.30;;;10.73;;
75718;SDS011;64340;48.534;-3.036;2023-06-14T08:03:45;15.35;;;10.32;;
75718;SDS011;64340;48.534;-3.036;2023-06-14T08:06:11;15.40;;;9.85;;
75718;SDS011;64340;48.534;-3.036;2023-06-14T08:08:37;15.88;;;10.18;;
75718;SDS011;64340;48.534;-3.036;2023-06-14T08:11:03;14.93;;;9.55;;
75718;SDS011;64340;48.534;-3.036;2023-06-14T08:13:29;15.18;;;10.05;;
75718;SDS011;64340;48.534;-3.036;2023-06-14T08:15:55;15.52;;;10.10;;
75718;SDS011;64340;48.534;-3.036;2023-06-14T08:18:22;18.80;;;11.40;;
75718;SDS011;64340;48.534;-3.036;2023-06-14T08:20:48;13.88;;;9.30;;
75718;SDS011;64340;48.534;-3.036;2023-06-14T08:23:15;16.35;;;10.32;;
75718;SDS011;64340;48.534;-3.036;2023-06-14T08:25:44;13.32;;;9.43;;
75718;SDS011;64340;48.534;-3.036;2023-06-14T08:28:10;16.23;;;9.75;;
75718;SDS011;64340;48.534;-3.036;2023-06-14T08:30:36;14.05;;;9.20;;
75718;SDS011;64340;48.534;-3.036;2023-06-14T08:33:02;14.55;;;9.77;;
75718;SDS011;64340;48.534;-3.036;2023-06-14T08:35:28;15.00;;;10.35;;
75718;SDS011;64340;48.534;-3.036;2023-06-14T08:37:54;14.50;;;10.10;;
75718;SDS011;64340;48.534;-3.036;2023-06-14T08:40:21;15.10;;;10.00;;
75718;SDS011;64340;48.534;-3.036;2023-06-14T08:42:50;17.05;;;11.18;;
75718;SDS011;64340;48.534;-3.036;2023-06-14T08:45:23;14.85;;;9.52;;
75718;SDS011;64340;48.534;-3.036;2023-06-14T08:47:50;17.05;;;10.73;;
75718;SDS011;64340;48.534;-3.036;2023-06-14T08:50:22;15.23;;;9.68;;
75718;SDS011;64340;48.534;-3.036;2023-06-14T08:52:55;15.30;;;9.75;;
75718;SDS011;64340;48.534;-3.036;2023-06-14T08:55:23;14.68;;;10.20;;
75718;SDS011;64340;48.534;-3.036;2023-06-14T08:57:53;15.50;;;10.18;;
75718;SDS011;64340;48.534;-3.036;2023-06-14T09:00:22;13.95;;;9.57;;
75718;SDS011;64340;48.534;-3.036;2023-06-14T09:02:49;15.50;;;9.85;;
75718;SDS011;64340;48.534;-3.036;2023-06-14T09:05:21;15.32;;;9.85;;
75718;SDS011;64340;48.534;-3.036;2023-06-14T09:07:50;15.73;;;9.98;;
75718;SDS011;64340;48.534;-3.036;2023-06-14T09:10:17;15.75;;;10.05;;
75718;SDS011;64340;48.534;-3.036;2023-06-14T09:12:44;13.80;;;10.15;;
75718;SDS011;64340;48.534;-3.036;2023-06-14T09:15:09;15.63;;;10.23;;
75718;SDS011;64340;48.534;-3.036;2023-06-14T09:17:35;15.15;;;10.02;;
75718;SDS011;64340;48.534;-3.036;2023-06-14T09:20:05;15.38;;;9.38;;
75718;SDS011;64340;48.534;-3.036;2023-06-14T09:22:36;15.68;;;10.23;;
75718;SDS011;64340;48.534;-3.036;2023-06-14T09:25:03;16.25;;;10.15;;
75718;SDS011;64340;48.534;-3.036;2023-06-14T09:27:30;13.10;;;9.75;;
75718;SDS011;64340;48.534;-3.036;2023-06-14T09:29:56;14.25;;;8.88;;
75718;SDS011;64340;48.534;-3.036;2023-06-14T09:32:22;13.10;;;9.50;;
75718;SDS011;64340;48.534;-3.036;2023-06-14T09:34:48;15.07;;;10.23;;
75718;SDS011;64340;48.534;-3.036;2023-06-14T09:37:29;13.73;;;9.18;;
75718;SDS011;64340;48.534;-3.036;2023-06-14T09:39:57;15.77;;;10.25;;
75718;SDS011;64340;48.534;-3.036;2023-06-14T09:42:23;15.82;;;11.23;;
75718;SDS011;64340;48.534;-3.036;2023-06-14T09:44:53;15.40;;;11.02;;
75718;SDS011;64340;48.534;-3.036;2023-06-14T09:47:21;16.77;;;10.68;;
75718;SDS011;64340;48.534;-3.036;2023-06-14T09:49:48;17.30;;;10.63;;
75718;SDS011;64340;48.534;-3.036;2023-06-14T09:52:16;18.13;;;10.35;;
75718;SDS011;64340;48.534;-3.036;2023-06-14T09:54:43;25.20;;;14.20;;
75718;SDS011;64340;48.534;-3.036;2023-06-14T09:57:16;66.15;;;35.42;;
75718;SDS011;64340;48.534;-3.036;2023-06-14T09:59:48;39.50;;;19.80;;
75718;SDS011;64340;48.534;-3.036;2023-06-14T10:02:20;43.38;;;23.73;;
75718;SDS011;64340;48.534;-3.036;2023-06-14T10:04:50;35.85;;;20.60;;
75718;SDS011;64340;48.534;-3.036;2023-06-14T10:07:23;36.20;;;17.58;;
75718;SDS011;64340;48.534;-3.036;2023-06-14T10:09:52;25.92;;;15.98;;
75718;SDS011;64340;48.534;-3.036;2023-06-14T10:12:19;26.88;;;15.57;;
75718;SDS011;64340;48.534;-3.036;2023-06-14T10:14:49;21.95;;;13.52;;
75718;SDS011;64340;48.534;-3.036;2023-06-14T10:17:20;19.95;;;11.95;;
75718;SDS011;64340;48.534;-3.036;2023-06-14T10:20:14;25.25;;;13.43;;
75718;SDS011;64340;48.534;-3.036;2023-06-14T10:23:13;20.58;;;10.77;;
75718;SDS011;64340;48.534;-3.036;2023-06-14T10:25:42;19.23;;;10.90;;
75718;SDS011;64340;48.534;-3.036;2023-06-14T10:31:03;15.38;;;9.48;;
75718;SDS011;64340;48.534;-3.036;2023-06-14T10:33:34;17.00;;;9.48;;
75718;SDS011;64340;48.534;-3.036;2023-06-14T10:39:00;13.68;;;8.32;;
75718;SDS011;64340;48.534;-3.036;2023-06-14T10:41:42;13.15;;;8.60;;
75718;SDS011;64340;48.534;-3.036;2023-06-14T10:46:47;12.50;;;8.07;;
75718;SDS011;64340;48.534;-3.036;2023-06-14T10:49:16;12.93;;;6.88;;
75718;SDS011;64340;48.534;-3.036;2023-06-14T10:52:02;13.45;;;7.50;;
75718;SDS011;64340;48.534;-3.036;2023-06-14T10:54:28;12.35;;;7.80;;
75718;SDS011;64340;48.534;-3.036;2023-06-14T10:56:54;10.70;;;7.03;;
75718;SDS011;64340;48.534;-3.036;2023-06-14T10:59:20;13.88;;;7.65;;
75718;SDS011;64340;48.534;-3.036;2023-06-14T11:04:18;11.65;;;7.32;;
75718;SDS011;64340;48.534;-3.036;2023-06-14T11:06:47;10.65;;;6.55;;
75718;SDS011;64340;48.534;-3.036;2023-06-14T11:12:06;10.13;;;6.10;;
75718;SDS011;64340;48.534;-3.036;2023-06-14T11:14:37;9.07;;;5.85;;
75718;SDS011;64340;48.534;-3.036;2023-06-14T11:17:04;7.55;;;5.78;;
75718;SDS011;64340;48.534;-3.036;2023-06-14T11:19:30;9.68;;;6.00;;
75718;SDS011;64340;48.534;-3.036;2023-06-14T11:21:56;8.05;;;6.07;;
75718;SDS011;64340;48.534;-3.036;2023-06-14T11:24:22;7.65;;;5.68;;
75718;SDS011;64340;48.534;-3.036;2023-06-14T11:26:48;9.85;;;6.15;;
75718;SDS011;64340;48.534;-3.036;2023-06-14T11:29:15;8.40;;;5.60;;
75718;SDS011;64340;48.534;-3.036;2023-06-14T11:31:45;10.85;;;6.03;;
75718;SDS011;64340;48.534;-3.036;2023-06-14T11:34:11;6.85;;;5.20;;
75718;SDS011;64340;48.534;-3.036;2023-06-14T11:36:38;11.50;;;6.47;;
75718;SDS011;64340;48.534;-3.036;2023-06-14T11:39:05;9.00;;;5.57;;
75718;SDS011;64340;48.534;-3.036;2023-06-14T11:41:39;8.52;;;5.40;;
75718;SDS011;64340;48.534;-3.036;2023-06-14T11:44:08;7.80;;;5.35;;
75718;SDS011;64340;48.534;-3.036;2023-06-14T11:46:35;7.97;;;5.38;;
75718;SDS011;64340;48.534;-3.036;2023-06-14T11:49:01;11.95;;;5.57;;
75718;SDS011;64340;48.534;-3.036;2023-06-14T11:51:32;7.63;;;4.82;;
75718;SDS011;64340;48.534;-3.036;2023-06-14T11:54:00;8.43;;;5.80;;
75718;SDS011;64340;48.534;-3.036;2023-06-14T11:56:32;7.72;;;5.18;;
75718;SDS011;64340;48.534;-3.036;2023-06-14T11:58:57;9.95;;;5.22;;
75718;SDS011;64340;48.534;-3.036;2023-06-14T12:01:23;8.10;;;4.35;;
75718;SDS011;64340;48.534;-3.036;2023-06-14T12:03:51;7.13;;;4.38;;
75718;SDS011;64340;48.534;-3.036;2023-06-14T12:06:25;8.80;;;5.63;;
75718;SDS011;64340;48.534;-3.036;2023-06-14T12:08:58;7.15;;;4.82;;
75718;SDS011;64340;48.534;-3.036;2023-06-14T12:11:24;7.22;;;4.68;;
75718;SDS011;64340;48.534;-3.036;2023-06-14T12:13:58;7.22;;;4.93;;
75718;SDS011;64340;48.534;-3.036;2023-06-14T12:16:29;7.38;;;4.43;;
75718;SDS011;64340;48.534;-3.036;2023-06-14T12:18:56;6.65;;;4.85;;
75718;SDS011;64340;48.534;-3.036;2023-06-14T12:21:26;5.35;;;4.28;;
75718;SDS011;64340;48.534;-3.036;2023-06-14T12:23:53;6.47;;;4.68;;
75718;SDS011;64340;48.534;-3.036;2023-06-14T12:26:19;6.22;;;4.32;;
75718;SDS011;64340;48.534;-3.036;2023-06-14T12:28:46;7.32;;;4.65;;
75718;SDS011;64340;48.534;-3.036;2023-06-14T12:31:13;7.20;;;4.63;;
75718;SDS011;64340;48.534;-3.036;2023-06-14T12:33:41;7.18;;;4.50;;
75718;SDS011;64340;48.534;-3.036;2023-06-14T12:36:07;6.15;;;4.60;;
75718;SDS011;64340;48.534;-3.036;2023-06-14T12:38:35;6.78;;;4.28;;
75718;SDS011;64340;48.534;-3.036;2023-06-14T12:41:01;6.40;;;4.75;;
75718;SDS011;64340;48.534;-3.036;2023-06-14T12:43:27;7.35;;;4.80;;
75718;SDS011;64340;48.534;-3.036;2023-06-14T12:45:53;6.55;;;4.53;;
75718;SDS011;64340;48.534;-3.036;2023-06-14T12:48:19;6.10;;;4.70;;
75718;SDS011;64340;48.534;-3.036;2023-06-14T12:50:45;8.32;;;4.70;;
75718;SDS011;64340;48.534;-3.036;2023-06-14T12:53:11;8.73;;;4.90;;
75718;SDS011;64340;48.534;-3.036;2023-06-14T12:55:37;6.57;;;4.47;;
75718;SDS011;64340;48.534;-3.036;2023-06-14T12:58:03;8.45;;;4.80;;
75718;SDS011;64340;48.534;-3.036;2023-06-14T13:00:29;7.55;;;4.70;;
75718;SDS011;64340;48.534;-3.036;2023-06-14T13:02:58;6.65;;;4.50;;
75718;SDS011;64340;48.534;-3.036;2023-06-14T13:05:24;6.90;;;4.57;;
75718;SDS011;64340;48.534;-3.036;2023-06-14T13:07:50;6.38;;;4.55;;
75718;SDS011;64340;48.534;-3.036;2023-06-14T13:10:16;7.63;;;4.90;;
75718;SDS011;64340;48.534;-3.036;2023-06-14T13:12:42;7.82;;;5.20;;
75718;SDS011;64340;48.534;-3.036;2023-06-14T13:15:08;7.97;;;4.80;;
75718;SDS011;64340;48.534;-3.036;2023-06-14T13:17:35;7.72;;;4.53;;
75718;SDS011;64340;48.534;-3.036;2023-06-14T13:20:07;7.75;;;4.90;;
75718;SDS011;64340;48.534;-3.036;2023-06-14T13:22:33;7.22;;;4.60;;
75718;SDS011;64340;48.534;-3.036;2023-06-14T13:25:00;11.20;;;4.88;;
75718;SDS011;64340;48.534;-3.036;2023-06-14T13:27:26;7.10;;;4.70;;
75718;SDS011;64340;48.534;-3.036;2023-06-14T13:29:53;6.53;;;4.40;;
75718;SDS011;64340;48.534;-3.036;2023-06-14T13:32:20;5.90;;;4.22;;
75718;SDS011;64340;48.534;-3.036;2023-06-14T13:34:46;8.65;;;4.68;;
75718;SDS011;64340;48.534;-3.036;2023-06-14T13:37:12;9.15;;;4.75;;
75718;SDS011;64340;48.534;-3.036;2023-06-14T13:39:38;7.65;;;4.78;;
75718;SDS011;64340;48.534;-3.036;2023-06-14T13:42:04;8.25;;;4.60;;
75718;SDS011;64340;48.534;-3.036;2023-06-14T13:44:30;6.25;;;4.57;;
75718;SDS011;64340;48.534;-3.036;2023-06-14T13:46:56;7.95;;;5.00;;
75718;SDS011;64340;48.534;-3.036;2023-06-14T13:49:22;7.03;;;4.53;;
75718;SDS011;64340;48.534;-3.036;2023-06-14T13:51:48;9.35;;;4.93;;
75718;SDS011;64340;48.534;-3.036;2023-06-14T13:54:13;6.90;;;4.90;;
75718;SDS011;64340;48.534;-3.036;2023-06-14T13:56:40;7.32;;;4.78;;
75718;SDS011;64340;48.534;-3.036;2023-06-14T13:59:06;7.72;;;4.72;;
75718;SDS011;64340;48.534;-3.036;2023-06-14T14:01:32;6.72;;;4.50;;
75718;SDS011;64340;48.534;-3.036;2023-06-14T14:03:58;6.15;;;4.93;;
75718;SDS011;64340;48.534;-3.036;2023-06-14T14:06:25;8.23;;;4.68;;
75718;SDS011;64340;48.534;-3.036;2023-06-14T14:08:52;6.85;;;5.05;;
75718;SDS011;64340;48.534;-3.036;2023-06-14T14:11:19;6.50;;;4.70;;
75718;SDS011;64340;48.534;-3.036;2023-06-14T14:13:45;7.10;;;4.65;;
75718;SDS011;64340;48.534;-3.036;2023-06-14T14:16:12;8.18;;;4.32;;
75718;SDS011;64340;48.534;-3.036;2023-06-14T14:18:38;6.97;;;4.15;;
75718;SDS011;64340;48.534;-3.036;2023-06-14T14:21:04;7.35;;;4.90;;
75718;SDS011;64340;48.534;-3.036;2023-06-14T14:23:30;8.82;;;4.82;;
75718;SDS011;64340;48.534;-3.036;2023-06-14T14:25:56;6.30;;;4.53;;
75718;SDS011;64340;48.534;-3.036;2023-06-14T14:28:22;6.75;;;4.50;;
75718;SDS011;64340;48.534;-3.036;2023-06-14T14:30:48;7.03;;;4.80;;
75718;SDS011;64340;48.534;-3.036;2023-06-14T14:33:14;5.55;;;4.50;;
75718;SDS011;64340;48.534;-3.036;2023-06-14T14:35:44;8.15;;;4.93;;
75718;SDS011;64340;48.534;-3.036;2023-06-14T14:38:13;7.90;;;4.90;;
75718;SDS011;64340;48.534;-3.036;2023-06-14T14:40:42;6.75;;;4.90;;
75718;SDS011;64340;48.534;-3.036;2023-06-14T14:43:09;7.55;;;5.45;;